sensor_id;sensor_type;location;lat;lon;timestamp;P1;durP1;ratioP1;P2;durP2;ratioP2
23804;SDS011;12083;52.098;7.582;2022-09-12T00:01:05;14.60;;;12.07;;
23804;SDS011;12083;52.098;7.582;2022-09-12T00:03:32;16.90;;;12.80;;
23804;SDS011;12083;52.098;7.582;2022-09-12T00:05:57;17.33;;;12.50;;
23804;SDS011;12083;52.098;7.582;2022-09-12T00:08:23;14.80;;;11.63;;
23804;SDS011;12083;52.098;7.582;2022-09-12T00:10:49;17.63;;;12.67;;
23804;SDS011;12083;52.098;7.582;2022-09-12T00:13:14;19.37;;;13.30;;
23804;SDS011;12083;52.098;7.582;2022-09-12T00:15:41;20.93;;;13.60;;
23804;SDS011;12083;52.098;7.582;2022-09-12T00:18:08;17.30;;;11.13;;
23804;SDS011;12083;52.098;7.582;2022-09-12T00:20:41;17.00;;;10.93;;
23804;SDS011;12083;52.098;7.582;2022-09-12T00:23:11;19.93;;;13.10;;
23804;SDS011;12083;52.098;7.582;2022-09-12T00:25:44;14.33;;;11.57;;
23804;SDS011;12083;52.098;7.582;2022-09-12T00:28:13;16.53;;;12.30;;
23804;SDS011;12083;52.098;7.582;2022-09-12T00:30:44;23.40;;;11.67;;
23804;SDS011;12083;52.098;7.582;2022-09-12T00:33:11;18.80;;;13.13;;
23804;SDS011;12083;52.098;7.582;2022-09-12T00:35:45;19.97;;;12.63;;
23804;SDS011;12083;52.098;7.582;2022-09-12T00:38:13;19.73;;;13.93;;
23804;SDS011;12083;52.098;7.582;2022-09-12T00:40:40;15.17;;;12.17;;
23804;SDS011;12083;52.098;7.582;2022-09-12T00:45:59;15.87;;;11.90;;
23804;SDS011;12083;52.098;7.582;2022-09-12T00:48:37;17.57;;;12.33;;
23804;SDS011;12083;52.098;7.582;2022-09-12T00:51:08;23.77;;;11.90;;
23804;SDS011;12083;52.098;7.582;2022-09-12T00:53:35;17.97;;;11.00;;
23804;SDS011;12083;52.098;7.582;2022-09-12T00:56:01;14.93;;;10.90;;
23804;SDS011;12083;52.098;7.582;2022-09-12T00:58:27;13.33;;;11.07;;
23804;SDS011;12083;52.098;7.582;2022-09-12T01:00:56;14.37;;;10.60;;
23804;SDS011;12083;52.098;7.582;2022-09-12T01:03:23;14.77;;;9.97;;
23804;SDS011;12083;52.098;7.582;2022-09-12T01:05:52;12.80;;;10.80;;
23804;SDS011;12083;52.098;7.582;2022-09-12T01:08:48;15.50;;;10.57;;
23804;SDS011;12083;52.098;7.582;2022-09-12T01:11:15;23.20;;;10.37;;
23804;SDS011;12083;52.098;7.582;2022-09-12T01:13:43;17.30;;;11.40;;
23804;SDS011;12083;52.098;7.582;2022-09-12T01:16:09;15.63;;;10.50;;
23804;SDS011;12083;52.098;7.582;2022-09-12T01:18:54;16.43;;;10.17;;
23804;SDS011;12083;52.098;7.582;2022-09-12T01:24:15;14.53;;;9.53;;
23804;SDS011;12083;52.098;7.582;2022-09-12T01:29:44;13.63;;;8.87;;
23804;SDS011;12083;52.098;7.582;2022-09-12T01:32:21;13.60;;;9.87;;
23804;SDS011;12083;52.098;7.582;2022-09-12T01:41:38;12.93;;;9.83;;
23804;SDS011;12083;52.098;7.582;2022-09-12T01:43:58;11.73;;;9.73;;
23804;SDS011;12083;52.098;7.582;2022-09-12T01:46:39;16.23;;;10.27;;
23804;SDS011;12083;52.098;7.582;2022-09-12T01:54:19;14.53;;;9.97;;
23804;SDS011;12083;52.098;7.582;2022-09-12T01:56:51;12.93;;;9.63;;
23804;SDS011;12083;52.098;7.582;2022-09-12T01:59:24;17.00;;;10.33;;
23804;SDS011;12083;52.098;7.582;2022-09-12T02:01:59;11.00;;;8.70;;
23804;SDS011;12083;52.098;7.582;2022-09-12T02:04:40;9.43;;;7.67;;
23804;SDS011;12083;52.098;7.582;2022-09-12T02:07:13;14.20;;;8.73;;
23804;SDS011;12083;52.098;7.582;2022-09-12T02:12:19;6.63;;;5.93;;
23804;SDS011;12083;52.098;7.582;2022-09-12T02:14:52;6.50;;;5.70;;
23804;SDS011;12083;52.098;7.582;2022-09-12T02:17:24;9.07;;;6.27;;
23804;SDS011;12083;52.098;7.582;2022-09-12T02:19:53;7.97;;;6.73;;
23804;SDS011;12083;52.098;7.582;2022-09-12T02:22:24;9.60;;;7.27;;
23804;SDS011;12083;52.098;7.582;2022-09-12T02:24:53;17.63;;;7.10;;
23804;SDS011;12083;52.098;7.582;2022-09-12T02:29:47;9.67;;;7.53;;
23804;SDS011;12083;52.098;7.582;2022-09-12T02:34:55;20.70;;;8.30;;
23804;SDS011;12083;52.098;7.582;2022-09-12T02:40:31;12.80;;;8.63;;
23804;SDS011;12083;52.098;7.582;2022-09-12T02:42:58;12.20;;;8.60;;
23804;SDS011;12083;52.098;7.582;2022-09-12T02:45:25;11.80;;;8.50;;
23804;SDS011;12083;52.098;7.582;2022-09-12T02:47:53;18.67;;;10.57;;
23804;SDS011;12083;52.098;7.582;2022-09-12T02:50:23;15.63;;;10.33;;
23804;SDS011;12083;52.098;7.582;2022-09-12T02:52:49;13.70;;;9.90;;
23804;SDS011;12083;52.098;7.582;2022-09-12T02:55:17;14.80;;;9.53;;
23804;SDS011;12083;52.098;7.582;2022-09-12T02:57:43;12.27;;;9.10;;
23804;SDS011;12083;52.098;7.582;2022-09-12T03:00:09;14.73;;;10.13;;
23804;SDS011;12083;52.098;7.582;2022-09-12T03:05:20;14.83;;;9.30;;
23804;SDS011;12083;52.098;7.582;2022-09-12T03:21:43;13.93;;;10.20;;
23804;SDS011;12083;52.098;7.582;2022-09-12T03:24:14;14.97;;;9.60;;
23804;SDS011;12083;52.098;7.582;2022-09-12T03:26:46;18.23;;;9.27;;
23804;SDS011;12083;52.098;7.582;2022-09-12T03:29:19;11.57;;;8.40;;
23804;SDS011;12083;52.098;7.582;2022-09-12T03:31:49;16.20;;;9.10;;
23804;SDS011;12083;52.098;7.582;2022-09-12T03:34:18;16.57;;;11.30;;
23804;SDS011;12083;52.098;7.582;2022-09-12T03:36:44;16.40;;;11.53;;
23804;SDS011;12083;52.098;7.582;2022-09-12T03:39:10;16.47;;;11.60;;
23804;SDS011;12083;52.098;7.582;2022-09-12T03:41:37;17.93;;;11.87;;
23804;SDS011;12083;52.098;7.582;2022-09-12T03:44:03;16.60;;;10.60;;
23804;SDS011;12083;52.098;7.582;2022-09-12T03:46:29;17.13;;;9.53;;
23804;SDS011;12083;52.098;7.582;2022-09-12T03:48:54;18.13;;;10.60;;
23804;SDS011;12083;52.098;7.582;2022-09-12T03:51:20;12.40;;;9.00;;
23804;SDS011;12083;52.098;7.582;2022-09-12T03:53:46;13.57;;;10.17;;
23804;SDS011;12083;52.098;7.582;2022-09-12T03:56:12;15.97;;;9.00;;
23804;SDS011;12083;52.098;7.582;2022-09-12T03:58:38;16.70;;;10.67;;
23804;SDS011;12083;52.098;7.582;2022-09-12T04:01:11;19.90;;;11.80;;
23804;SDS011;12083;52.098;7.582;2022-09-12T04:03:42;20.83;;;13.20;;
23804;SDS011;12083;52.098;7.582;2022-09-12T04:06:09;27.00;;;14.60;;
23804;SDS011;12083;52.098;7.582;2022-09-12T04:08:36;23.80;;;15.13;;
23804;SDS011;12083;52.098;7.582;2022-09-12T04:11:07;22.77;;;15.10;;
23804;SDS011;12083;52.098;7.582;2022-09-12T04:13:37;20.37;;;13.23;;
23804;SDS011;12083;52.098;7.582;2022-09-12T05:17:49;29.30;;;19.03;;
23804;SDS011;12083;52.098;7.582;2022-09-12T05:20:15;33.33;;;19.37;;
23804;SDS011;12083;52.098;7.582;2022-09-12T05:22:41;26.10;;;16.77;;
23804;SDS011;12083;52.098;7.582;2022-09-12T05:25:07;28.17;;;18.90;;
23804;SDS011;12083;52.098;7.582;2022-09-12T05:27:33;29.73;;;18.10;;
23804;SDS011;12083;52.098;7.582;2022-09-12T05:29:59;31.70;;;19.30;;
23804;SDS011;12083;52.098;7.582;2022-09-12T05:32:24;32.93;;;19.10;;
23804;SDS011;12083;52.098;7.582;2022-09-12T05:34:50;44.23;;;18.07;;
23804;SDS011;12083;52.098;7.582;2022-09-12T05:37:15;32.00;;;20.10;;
23804;SDS011;12083;52.098;7.582;2022-09-12T05:39:41;35.60;;;20.80;;
23804;SDS011;12083;52.098;7.582;2022-09-12T05:42:07;34.63;;;20.30;;
23804;SDS011;12083;52.098;7.582;2022-09-12T05:44:33;31.43;;;19.63;;
23804;SDS011;12083;52.098;7.582;2022-09-12T05:46:58;38.10;;;19.93;;
23804;SDS011;12083;52.098;7.582;2022-09-12T05:49:24;50.23;;;20.23;;
23804;SDS011;12083;52.098;7.582;2022-09-12T05:51:50;31.73;;;19.27;;
23804;SDS011;12083;52.098;7.582;2022-09-12T05:54:16;34.87;;;18.70;;
23804;SDS011;12083;52.098;7.582;2022-09-12T05:56:44;34.70;;;19.03;;
23804;SDS011;12083;52.098;7.582;2022-09-12T05:59:12;31.30;;;18.10;;
23804;SDS011;12083;52.098;7.582;2022-09-12T06:01:39;29.43;;;18.37;;
23804;SDS011;12083;52.098;7.582;2022-09-12T06:04:05;38.23;;;20.80;;
23804;SDS011;12083;52.098;7.582;2022-09-12T06:06:34;32.97;;;19.47;;
23804;SDS011;12083;52.098;7.582;2022-09-12T06:09:02;35.00;;;20.30;;
23804;SDS011;12083;52.098;7.582;2022-09-12T06:11:30;30.70;;;18.70;;
23804;SDS011;12083;52.098;7.582;2022-09-12T06:14:01;32.33;;;18.50;;
23804;SDS011;12083;52.098;7.582;2022-09-12T06:16:28;30.00;;;20.17;;
23804;SDS011;12083;52.098;7.582;2022-09-12T06:18:55;35.60;;;19.77;;
23804;SDS011;12083;52.098;7.582;2022-09-12T06:21:25;28.67;;;19.60;;
23804;SDS011;12083;52.098;7.582;2022-09-12T06:23:54;24.40;;;16.37;;
23804;SDS011;12083;52.098;7.582;2022-09-12T06:26:20;29.63;;;19.10;;
23804;SDS011;12083;52.098;7.582;2022-09-12T06:28:48;30.17;;;19.27;;
23804;SDS011;12083;52.098;7.582;2022-09-12T06:31:15;26.40;;;17.03;;
23804;SDS011;12083;52.098;7.582;2022-09-12T06:33:45;25.10;;;17.80;;
23804;SDS011;12083;52.098;7.582;2022-09-12T06:36:17;23.93;;;15.50;;
23804;SDS011;12083;52.098;7.582;2022-09-12T06:38:47;26.20;;;16.07;;
23804;SDS011;12083;52.098;7.582;2022-09-12T06:41:22;17.60;;;13.90;;
23804;SDS011;12083;52.098;7.582;2022-09-12T06:43:48;19.80;;;13.67;;
23804;SDS011;12083;52.098;7.582;2022-09-12T06:46:14;20.10;;;14.77;;
23804;SDS011;12083;52.098;7.582;2022-09-12T06:48:40;17.30;;;13.83;;
23804;SDS011;12083;52.098;7.582;2022-09-12T06:51:08;16.10;;;12.40;;
23804;SDS011;12083;52.098;7.582;2022-09-12T06:53:35;17.83;;;13.40;;
23804;SDS011;12083;52.098;7.582;2022-09-12T06:56:05;24.63;;;13.60;;
23804;SDS011;12083;52.098;7.582;2022-09-12T06:58:34;15.57;;;12.47;;
23804;SDS011;12083;52.098;7.582;2022-09-12T07:01:19;16.63;;;12.50;;
23804;SDS011;12083;52.098;7.582;2022-09-12T07:03:47;18.57;;;13.70;;
23804;SDS011;12083;52.098;7.582;2022-09-12T07:06:17;15.03;;;12.23;;
23804;SDS011;12083;52.098;7.582;2022-09-12T07:08:44;16.13;;;11.63;;
23804;SDS011;12083;52.098;7.582;2022-09-12T07:13:41;18.30;;;13.10;;
23804;SDS011;12083;52.098;7.582;2022-09-12T07:16:15;16.23;;;12.07;;
23804;SDS011;12083;52.098;7.582;2022-09-12T07:18:41;19.37;;;12.67;;
23804;SDS011;12083;52.098;7.582;2022-09-12T07:21:12;16.00;;;12.13;;
23804;SDS011;12083;52.098;7.582;2022-09-12T07:23:39;22.07;;;11.83;;
23804;SDS011;12083;52.098;7.582;2022-09-12T07:26:06;14.67;;;11.30;;
23804;SDS011;12083;52.098;7.582;2022-09-12T07:28:34;19.03;;;12.00;;
23804;SDS011;12083;52.098;7.582;2022-09-12T07:31:04;16.20;;;11.43;;
23804;SDS011;12083;52.098;7.582;2022-09-12T07:33:31;17.67;;;12.30;;
23804;SDS011;12083;52.098;7.582;2022-09-12T07:36:04;15.60;;;11.90;;
23804;SDS011;12083;52.098;7.582;2022-09-12T07:38:33;18.23;;;10.83;;
23804;SDS011;12083;52.098;7.582;2022-09-12T07:40:59;13.90;;;11.33;;
23804;SDS011;12083;52.098;7.582;2022-09-12T07:43:25;15.23;;;11.63;;
23804;SDS011;12083;52.098;7.582;2022-09-12T07:45:57;25.37;;;11.67;;
23804;SDS011;12083;52.098;7.582;2022-09-12T07:48:23;14.20;;;10.10;;
23804;SDS011;12083;52.098;7.582;2022-09-12T07:50:59;16.07;;;13.00;;
23804;SDS011;12083;52.098;7.582;2022-09-12T07:53:29;15.30;;;12.20;;
23804;SDS011;12083;52.098;7.582;2022-09-12T07:55:56;18.30;;;11.20;;
23804;SDS011;12083;52.098;7.582;2022-09-12T07:58:22;44.87;;;13.63;;
23804;SDS011;12083;52.098;7.582;2022-09-12T08:00:48;17.70;;;12.70;;
23804;SDS011;12083;52.098;7.582;2022-09-12T08:03:14;20.07;;;11.17;;
23804;SDS011;12083;52.098;7.582;2022-09-12T08:05:40;16.20;;;11.03;;
23804;SDS011;12083;52.098;7.582;2022-09-12T08:08:06;12.73;;;9.83;;
23804;SDS011;12083;52.098;7.582;2022-09-12T08:10:31;17.77;;;11.07;;
23804;SDS011;12083;52.098;7.582;2022-09-12T08:12:57;14.80;;;11.20;;
23804;SDS011;12083;52.098;7.582;2022-09-12T08:15:23;15.60;;;10.87;;
23804;SDS011;12083;52.098;7.582;2022-09-12T08:17:49;20.60;;;12.00;;
23804;SDS011;12083;52.098;7.582;2022-09-12T08:20:15;14.70;;;11.60;;
23804;SDS011;12083;52.098;7.582;2022-09-12T08:22:42;20.10;;;11.40;;
23804;SDS011;12083;52.098;7.582;2022-09-12T08:25:08;18.47;;;10.63;;
23804;SDS011;12083;52.098;7.582;2022-09-12T08:27:35;18.10;;;11.00;;
23804;SDS011;12083;52.098;7.582;2022-09-12T08:30:00;23.70;;;12.20;;
23804;SDS011;12083;52.098;7.582;2022-09-12T08:32:26;14.80;;;10.90;;
23804;SDS011;12083;52.098;7.582;2022-09-12T08:34:51;14.67;;;10.27;;
23804;SDS011;12083;52.098;7.582;2022-09-12T08:37:17;15.77;;;10.57;;
23804;SDS011;12083;52.098;7.582;2022-09-12T08:39:43;23.60;;;11.97;;
23804;SDS011;12083;52.098;7.582;2022-09-12T08:42:08;15.13;;;10.83;;
23804;SDS011;12083;52.098;7.582;2022-09-12T08:50:04;22.53;;;10.47;;
23804;SDS011;12083;52.098;7.582;2022-09-12T08:52:49;15.87;;;11.00;;
23804;SDS011;12083;52.098;7.582;2022-09-12T08:55:28;18.03;;;10.33;;
23804;SDS011;12083;52.098;7.582;2022-09-12T08:58:11;12.30;;;9.20;;
23804;SDS011;12083;52.098;7.582;2022-09-12T09:00:40;15.23;;;10.40;;
23804;SDS011;12083;52.098;7.582;2022-09-12T09:03:26;17.40;;;11.47;;
23804;SDS011;12083;52.098;7.582;2022-09-12T09:06:20;21.13;;;10.03;;
23804;SDS011;12083;52.098;7.582;2022-09-12T09:09:11;15.80;;;10.80;;
23804;SDS011;12083;52.098;7.582;2022-09-12T09:20:37;24.10;;;10.17;;
23804;SDS011;12083;52.098;7.582;2022-09-12T09:31:04;15.40;;;10.40;;
23804;SDS011;12083;52.098;7.582;2022-09-12T09:33:38;15.00;;;11.00;;
23804;SDS011;12083;52.098;7.582;2022-09-12T09:36:17;20.30;;;11.60;;
23804;SDS011;12083;52.098;7.582;2022-09-12T09:41:44;14.33;;;10.07;;
23804;SDS011;12083;52.098;7.582;2022-09-12T09:44:21;19.73;;;10.77;;
23804;SDS011;12083;52.098;7.582;2022-09-12T09:46:48;20.97;;;10.13;;
23804;SDS011;12083;52.098;7.582;2022-09-12T09:49:18;16.20;;;9.93;;
23804;SDS011;12083;52.098;7.582;2022-09-12T09:51:44;15.37;;;10.87;;
23804;SDS011;12083;52.098;7.582;2022-09-12T09:56:36;15.87;;;10.60;;
23804;SDS011;12083;52.098;7.582;2022-09-12T09:59:26;13.47;;;9.47;;
23804;SDS011;12083;52.098;7.582;2022-09-12T10:01:57;14.43;;;10.53;;
23804;SDS011;12083;52.098;7.582;2022-09-12T10:04:39;18.87;;;11.13;;
23804;SDS011;12083;52.098;7.582;2022-09-12T10:07:11;15.17;;;10.77;;
23804;SDS011;12083;52.098;7.582;2022-09-12T10:09:45;16.87;;;10.20;;
23804;SDS011;12083;52.098;7.582;2022-09-12T10:12:44;16.47;;;11.10;;
23804;SDS011;12083;52.098;7.582;2022-09-12T10:15:15;16.00;;;11.17;;
23804;SDS011;12083;52.098;7.582;2022-09-12T10:17:43;21.27;;;11.37;;
23804;SDS011;12083;52.098;7.582;2022-09-12T10:20:56;18.93;;;11.53;;
23804;SDS011;12083;52.098;7.582;2022-09-12T10:23:27;14.80;;;9.17;;
23804;SDS011;12083;52.098;7.582;2022-09-12T10:25:55;20.00;;;12.10;;
23804;SDS011;12083;52.098;7.582;2022-09-12T10:28:32;16.77;;;11.67;;
23804;SDS011;12083;52.098;7.582;2022-09-12T10:31:03;18.23;;;11.80;;
23804;SDS011;12083;52.098;7.582;2022-09-12T10:33:31;20.77;;;11.40;;
23804;SDS011;12083;52.098;7.582;2022-09-12T10:36:06;17.40;;;10.73;;
23804;SDS011;12083;52.098;7.582;2022-09-12T10:38:32;19.27;;;12.53;;
23804;SDS011;12083;52.098;7.582;2022-09-12T10:41:05;24.50;;;11.37;;
23804;SDS011;12083;52.098;7.582;2022-09-12T10:46:36;18.40;;;11.13;;
23804;SDS011;12083;52.098;7.582;2022-09-12T10:49:11;18.63;;;11.63;;
23804;SDS011;12083;52.098;7.582;2022-09-12T10:51:49;17.47;;;10.70;;
23804;SDS011;12083;52.098;7.582;2022-09-12T10:54:16;25.30;;;11.67;;
23804;SDS011;12083;52.098;7.582;2022-09-12T10:56:52;20.30;;;11.60;;
23804;SDS011;12083;52.098;7.582;2022-09-12T11:02:43;18.43;;;11.00;;
23804;SDS011;12083;52.098;7.582;2022-09-12T11:10:49;22.60;;;10.73;;
23804;SDS011;12083;52.098;7.582;2022-09-12T11:13:29;17.67;;;13.13;;
23804;SDS011;12083;52.098;7.582;2022-09-12T11:16:21;19.23;;;10.80;;
23804;SDS011;12083;52.098;7.582;2022-09-12T11:29:50;12.00;;;6.20;;
23804;SDS011;12083;52.098;7.582;2022-09-12T11:32:41;8.07;;;5.63;;
23804;SDS011;12083;52.098;7.582;2022-09-12T11:35:37;10.60;;;6.47;;
23804;SDS011;12083;52.098;7.582;2022-09-12T11:43:27;4.20;;;3.63;;
23804;SDS011;12083;52.098;7.582;2022-09-12T11:46:01;5.13;;;4.33;;
23804;SDS011;12083;52.098;7.582;2022-09-12T11:51:40;7.97;;;5.10;;
23804;SDS011;12083;52.098;7.582;2022-09-12T11:54:13;7.87;;;4.10;;
23804;SDS011;12083;52.098;7.582;2022-09-12T11:57:04;6.83;;;4.90;;
23804;SDS011;12083;52.098;7.582;2022-09-12T12:02:30;4.80;;;4.37;;
23804;SDS011;12083;52.098;7.582;2022-09-12T12:07:59;5.30;;;3.80;;
23804;SDS011;12083;52.098;7.582;2022-09-12T12:10:28;9.73;;;4.43;;
23804;SDS011;12083;52.098;7.582;2022-09-12T12:13:01;7.00;;;4.50;;
23804;SDS011;12083;52.098;7.582;2022-09-12T12:15:29;4.27;;;3.87;;
23804;SDS011;12083;52.098;7.582;2022-09-12T12:18:03;7.23;;;3.47;;
23804;SDS011;12083;52.098;7.582;2022-09-12T12:20:31;3.97;;;3.37;;
23804;SDS011;12083;52.098;7.582;2022-09-12T12:22:58;13.93;;;3.80;;
23804;SDS011;12083;52.098;7.582;2022-09-12T12:25:25;3.63;;;3.30;;
23804;SDS011;12083;52.098;7.582;2022-09-12T12:28:04;10.10;;;3.80;;
23804;SDS011;12083;52.098;7.582;2022-09-12T12:35:39;6.50;;;3.50;;
23804;SDS011;12083;52.098;7.582;2022-09-12T12:43:43;5.00;;;2.93;;
23804;SDS011;12083;52.098;7.582;2022-09-12T12:46:11;3.63;;;3.13;;
23804;SDS011;12083;52.098;7.582;2022-09-12T12:57:17;4.57;;;3.50;;
23804;SDS011;12083;52.098;7.582;2022-09-12T12:59:52;3.83;;;3.50;;
23804;SDS011;12083;52.098;7.582;2022-09-12T13:02:24;4.13;;;3.10;;
23804;SDS011;12083;52.098;7.582;2022-09-12T13:05:03;5.83;;;4.30;;
23804;SDS011;12083;52.098;7.582;2022-09-12T13:07:40;5.23;;;3.70;;
23804;SDS011;12083;52.098;7.582;2022-09-12T13:10:18;4.30;;;3.20;;
23804;SDS011;12083;52.098;7.582;2022-09-12T13:12:47;6.60;;;3.70;;
23804;SDS011;12083;52.098;7.582;2022-09-12T13:18:46;5.50;;;3.60;;
23804;SDS011;12083;52.098;7.582;2022-09-12T13:21:02;6.60;;;3.20;;
23804;SDS011;12083;52.098;7.582;2022-09-12T13:23:34;8.67;;;5.37;;
23804;SDS011;12083;52.098;7.582;2022-09-12T13:26:00;8.60;;;4.03;;
23804;SDS011;12083;52.098;7.582;2022-09-12T13:28:27;5.43;;;4.33;;
23804;SDS011;12083;52.098;7.582;2022-09-12T13:31:02;4.90;;;4.40;;
23804;SDS011;12083;52.098;7.582;2022-09-12T13:33:40;7.73;;;4.30;;
23804;SDS011;12083;52.098;7.582;2022-09-12T13:39:06;4.40;;;3.80;;
23804;SDS011;12083;52.098;7.582;2022-09-12T13:44:27;6.50;;;3.87;;
23804;SDS011;12083;52.098;7.582;2022-09-12T13:46:58;10.37;;;4.30;;
23804;SDS011;12083;52.098;7.582;2022-09-12T13:49:31;8.43;;;4.10;;
23804;SDS011;12083;52.098;7.582;2022-09-12T13:52:03;6.77;;;4.00;;
23804;SDS011;12083;52.098;7.582;2022-09-12T13:54:33;3.77;;;3.47;;
23804;SDS011;12083;52.098;7.582;2022-09-12T13:57:02;5.33;;;4.37;;
23804;SDS011;12083;52.098;7.582;2022-09-12T13:59:36;7.47;;;3.97;;
23804;SDS011;12083;52.098;7.582;2022-09-12T14:02:19;5.70;;;3.10;;
23804;SDS011;12083;52.098;7.582;2022-09-12T14:04:47;5.17;;;4.10;;
23804;SDS011;12083;52.098;7.582;2022-09-12T14:10:19;3.97;;;3.40;;
23804;SDS011;12083;52.098;7.582;2022-09-12T14:12:50;5.93;;;4.57;;
23804;SDS011;12083;52.098;7.582;2022-09-12T14:15:18;4.30;;;3.30;;
23804;SDS011;12083;52.098;7.582;2022-09-12T14:17:49;6.63;;;3.90;;
23804;SDS011;12083;52.098;7.582;2022-09-12T14:20:17;7.97;;;3.97;;
23804;SDS011;12083;52.098;7.582;2022-09-12T14:22:44;4.03;;;3.67;;
23804;SDS011;12083;52.098;7.582;2022-09-12T14:25:17;4.30;;;3.33;;
23804;SDS011;12083;52.098;7.582;2022-09-12T14:27:55;4.40;;;3.77;;
23804;SDS011;12083;52.098;7.582;2022-09-12T14:30:35;3.90;;;3.27;;
23804;SDS011;12083;52.098;7.582;2022-09-12T14:33:15;4.37;;;2.60;;
23804;SDS011;12083;52.098;7.582;2022-09-12T14:35:47;4.93;;;3.00;;
23804;SDS011;12083;52.098;7.582;2022-09-12T14:40:42;14.70;;;3.90;;
23804;SDS011;12083;52.098;7.582;2022-09-12T14:43:17;6.47;;;3.83;;
23804;SDS011;12083;52.098;7.582;2022-09-12T14:45:50;3.33;;;3.03;;
23804;SDS011;12083;52.098;7.582;2022-09-12T14:48:23;3.73;;;2.70;;
23804;SDS011;12083;52.098;7.582;2022-09-12T14:50:51;5.90;;;3.70;;
23804;SDS011;12083;52.098;7.582;2022-09-12T14:55:44;2.60;;;2.40;;
23804;SDS011;12083;52.098;7.582;2022-09-12T15:03:27;3.30;;;2.70;;
23804;SDS011;12083;52.098;7.582;2022-09-12T15:05:55;3.10;;;2.80;;
23804;SDS011;12083;52.098;7.582;2022-09-12T15:08:22;4.63;;;2.53;;
23804;SDS011;12083;52.098;7.582;2022-09-12T15:10:48;4.57;;;2.80;;
23804;SDS011;12083;52.098;7.582;2022-09-12T15:13:16;2.80;;;2.60;;
23804;SDS011;12083;52.098;7.582;2022-09-12T15:15:47;4.63;;;2.57;;
23804;SDS011;12083;52.098;7.582;2022-09-12T15:18:15;5.50;;;2.47;;
23804;SDS011;12083;52.098;7.582;2022-09-12T15:20:42;2.87;;;2.30;;
23804;SDS011;12083;52.098;7.582;2022-09-12T15:23:11;3.90;;;1.87;;
23804;SDS011;12083;52.098;7.582;2022-09-12T15:25:42;2.90;;;2.00;;
23804;SDS011;12083;52.098;7.582;2022-09-12T15:28:18;2.63;;;2.30;;
23804;SDS011;12083;52.098;7.582;2022-09-12T15:30:46;3.77;;;2.50;;
23804;SDS011;12083;52.098;7.582;2022-09-12T15:33:15;2.80;;;2.50;;
23804;SDS011;12083;52.098;7.582;2022-09-12T15:35:45;2.27;;;2.07;;
23804;SDS011;12083;52.098;7.582;2022-09-12T15:38:11;3.13;;;2.80;;
23804;SDS011;12083;52.098;7.582;2022-09-12T15:40:37;4.43;;;2.73;;
23804;SDS011;12083;52.098;7.582;2022-09-12T15:43:03;2.90;;;2.13;;
23804;SDS011;12083;52.098;7.582;2022-09-12T15:45:29;5.00;;;2.50;;
23804;SDS011;12083;52.098;7.582;2022-09-12T15:47:58;6.93;;;2.50;;
23804;SDS011;12083;52.098;7.582;2022-09-12T15:50:25;4.30;;;2.30;;
23804;SDS011;12083;52.098;7.582;2022-09-12T15:52:52;3.37;;;2.27;;
23804;SDS011;12083;52.098;7.582;2022-09-12T15:55:20;3.73;;;2.50;;
23804;SDS011;12083;52.098;7.582;2022-09-12T15:57:47;2.97;;;2.67;;
23804;SDS011;12083;52.098;7.582;2022-09-12T16:00:13;6.40;;;2.33;;
23804;SDS011;12083;52.098;7.582;2022-09-12T16:02:41;3.40;;;2.20;;
23804;SDS011;12083;52.098;7.582;2022-09-12T16:05:09;6.73;;;2.63;;
23804;SDS011;12083;52.098;7.582;2022-09-12T16:07:40;3.67;;;2.37;;
23804;SDS011;12083;52.098;7.582;2022-09-12T16:10:12;7.77;;;2.50;;
23804;SDS011;12083;52.098;7.582;2022-09-12T16:12:40;4.00;;;2.77;;
23804;SDS011;12083;52.098;7.582;2022-09-12T16:15:05;4.47;;;2.33;;
23804;SDS011;12083;52.098;7.582;2022-09-12T16:17:31;4.37;;;2.00;;
23804;SDS011;12083;52.098;7.582;2022-09-12T16:19:57;5.53;;;2.50;;
23804;SDS011;12083;52.098;7.582;2022-09-12T16:22:22;4.70;;;2.20;;
23804;SDS011;12083;52.098;7.582;2022-09-12T16:24:48;4.20;;;2.40;;
23804;SDS011;12083;52.098;7.582;2022-09-12T16:27:13;3.87;;;2.10;;
23804;SDS011;12083;52.098;7.582;2022-09-12T16:29:39;2.20;;;1.80;;
23804;SDS011;12083;52.098;7.582;2022-09-12T16:32:05;8.97;;;2.40;;
23804;SDS011;12083;52.098;7.582;2022-09-12T16:34:31;5.50;;;2.57;;
23804;SDS011;12083;52.098;7.582;2022-09-12T16:36:57;11.10;;;2.43;;
23804;SDS011;12083;52.098;7.582;2022-09-12T16:39:22;2.57;;;2.37;;
23804;SDS011;12083;52.098;7.582;2022-09-12T16:41:48;4.07;;;2.20;;
23804;SDS011;12083;52.098;7.582;2022-09-12T16:44:14;4.97;;;2.70;;
23804;SDS011;12083;52.098;7.582;2022-09-12T16:46:39;4.80;;;3.03;;
23804;SDS011;12083;52.098;7.582;2022-09-12T16:49:05;2.53;;;2.33;;
23804;SDS011;12083;52.098;7.582;2022-09-12T16:51:32;3.67;;;2.70;;
23804;SDS011;12083;52.098;7.582;2022-09-12T16:54:00;2.70;;;2.50;;
23804;SDS011;12083;52.098;7.582;2022-09-12T16:56:26;6.07;;;2.70;;
23804;SDS011;12083;52.098;7.582;2022-09-12T16:58:52;2.50;;;2.30;;
23804;SDS011;12083;52.098;7.582;2022-09-12T17:01:19;3.33;;;2.63;;
23804;SDS011;12083;52.098;7.582;2022-09-12T17:03:52;5.67;;;2.53;;
23804;SDS011;12083;52.098;7.582;2022-09-12T17:06:20;3.70;;;2.30;;
23804;SDS011;12083;52.098;7.582;2022-09-12T17:08:47;16.10;;;2.60;;
23804;SDS011;12083;52.098;7.582;2022-09-12T17:11:18;4.30;;;2.17;;
23804;SDS011;12083;52.098;7.582;2022-09-12T17:13:49;3.57;;;2.67;;
23804;SDS011;12083;52.098;7.582;2022-09-12T17:16:17;2.30;;;2.10;;
23804;SDS011;12083;52.098;7.582;2022-09-12T17:18:43;2.60;;;2.40;;
23804;SDS011;12083;52.098;7.582;2022-09-12T17:21:09;5.53;;;2.47;;
23804;SDS011;12083;52.098;7.582;2022-09-12T17:23:36;5.50;;;2.77;;
23804;SDS011;12083;52.098;7.582;2022-09-12T17:26:02;3.57;;;2.33;;
23804;SDS011;12083;52.098;7.582;2022-09-12T17:28:28;5.30;;;3.00;;
23804;SDS011;12083;52.098;7.582;2022-09-12T17:30:55;6.43;;;2.53;;
23804;SDS011;12083;52.098;7.582;2022-09-12T17:33:26;3.60;;;2.53;;
23804;SDS011;12083;52.098;7.582;2022-09-12T17:35:52;2.73;;;2.40;;
23804;SDS011;12083;52.098;7.582;2022-09-12T17:38:18;3.17;;;2.10;;
23804;SDS011;12083;52.098;7.582;2022-09-12T17:40:45;4.03;;;2.63;;
23804;SDS011;12083;52.098;7.582;2022-09-12T17:43:11;4.33;;;3.03;;
23804;SDS011;12083;52.098;7.582;2022-09-12T17:45:39;2.50;;;2.30;;
23804;SDS011;12083;52.098;7.582;2022-09-12T17:48:06;2.50;;;2.30;;
23804;SDS011;12083;52.098;7.582;2022-09-12T17:50:35;3.43;;;2.60;;
23804;SDS011;12083;52.098;7.582;2022-09-12T17:53:02;3.47;;;3.10;;
23804;SDS011;12083;52.098;7.582;2022-09-12T17:55:28;9.20;;;2.97;;
23804;SDS011;12083;52.098;7.582;2022-09-12T17:57:59;4.53;;;2.50;;
23804;SDS011;12083;52.098;7.582;2022-09-12T18:00:26;6.77;;;3.10;;
23804;SDS011;12083;52.098;7.582;2022-09-12T18:03:11;4.00;;;3.17;;
23804;SDS011;12083;52.098;7.582;2022-09-12T18:05:43;7.07;;;2.90;;
23804;SDS011;12083;52.098;7.582;2022-09-12T18:08:10;4.03;;;3.20;;
23804;SDS011;12083;52.098;7.582;2022-09-12T18:10:36;4.60;;;2.87;;
23804;SDS011;12083;52.098;7.582;2022-09-12T18:13:02;6.87;;;2.70;;
23804;SDS011;12083;52.098;7.582;2022-09-12T18:15:27;5.63;;;3.43;;
23804;SDS011;12083;52.098;7.582;2022-09-12T18:17:53;3.47;;;3.00;;
23804;SDS011;12083;52.098;7.582;2022-09-12T18:20:18;4.17;;;3.17;;
23804;SDS011;12083;52.098;7.582;2022-09-12T18:22:47;12.20;;;3.57;;
23804;SDS011;12083;52.098;7.582;2022-09-12T18:25:13;4.40;;;3.07;;
23804;SDS011;12083;52.098;7.582;2022-09-12T18:27:39;3.33;;;3.03;;